createdAt,value
2023-05-05T00:00:35.751Z,2.38
2023-05-05T00:03:49.300Z,2.55
2023-05-05T00:06:59.878Z,2.00
2023-05-05T00:10:23.615Z,2.10
2023-05-05T00:13:31.975Z,2.10
2023-05-05T00:16:36.056Z,2.45
2023-05-05T00:19:39.260Z,2.20
2023-05-05T00:22:46.708Z,2.33
2023-05-05T00:26:03.766Z,2.13
2023-05-05T00:29:08.815Z,1.83
2023-05-05T00:32:27.064Z,1.98
2023-05-05T00:35:40.138Z,2.05
2023-05-05T00:39:00.545Z,2.00
2023-05-05T00:42:22.135Z,2.20
2023-05-05T00:45:24.341Z,2.30
2023-05-05T00:48:26.904Z,2.05
2023-05-05T00:51:29.115Z,2.33
2023-05-05T00:54:31.376Z,2.20
2023-05-05T00:57:35.143Z,2.20
2023-05-05T01:00:37.370Z,2.20
2023-05-05T01:03:40.152Z,2.30
2023-05-05T01:06:42.624Z,2.58
2023-05-05T01:09:47.824Z,2.20
2023-05-05T01:12:50.121Z,2.38
2023-05-05T01:15:56.675Z,2.40
2023-05-05T01:19:29.718Z,2.20
2023-05-05T01:22:38.214Z,2.17
2023-05-05T01:25:58.747Z,2.53
2023-05-05T01:29:07.513Z,2.90
2023-05-05T01:32:19.749Z,2.13
2023-05-05T01:35:24.942Z,2.30
2023-05-05T01:38:31.484Z,2.17
2023-05-05T01:41:39.607Z,2.25
2023-05-05T01:44:43.682Z,2.13
2023-05-05T01:47:46.287Z,2.37
2023-05-05T01:50:49.106Z,2.30
2023-05-05T01:53:57.026Z,2.53
2023-05-05T01:56:59.575Z,2.55
2023-05-05T02:00:06.266Z,2.33
2023-05-05T02:03:17.545Z,2.57
2023-05-05T02:06:20.835Z,2.50
2023-05-05T02:09:25.151Z,2.75
2023-05-05T02:12:29.149Z,2.97
2023-05-05T02:15:32.957Z,2.97
2023-05-05T02:18:36.122Z,3.13
2023-05-05T02:21:38.429Z,2.88
2023-05-05T02:24:41.784Z,3.10
2023-05-05T02:27:45.046Z,2.72
2023-05-05T02:31:06.096Z,3.25
2023-05-05T02:34:08.883Z,3.07
2023-05-05T02:37:15.149Z,2.80
2023-05-05T02:40:22.458Z,3.00
2023-05-05T02:43:25.756Z,3.30
2023-05-05T02:46:28.414Z,3.17
2023-05-05T02:49:30.701Z,3.50
2023-05-05T02:52:35.565Z,3.17
2023-05-05T02:55:58.306Z,3.08
2023-05-05T02:59:19.571Z,3.10
2023-05-05T03:02:24.649Z,2.88
2023-05-05T03:05:29.592Z,2.97
2023-05-05T03:08:37.006Z,3.47
2023-05-05T03:11:43.691Z,3.13
2023-05-05T03:14:46.182Z,3.03
2023-05-05T03:17:51.805Z,3.30
2023-05-05T03:20:54.721Z,3.67
2023-05-05T03:23:57.208Z,3.13
2023-05-05T03:26:59.551Z,3.38
2023-05-05T03:30:08.551Z,3.30
2023-05-05T03:33:15.796Z,3.10
2023-05-05T03:36:18.213Z,3.70
2023-05-05T03:39:20.658Z,3.50
2023-05-05T03:42:24.402Z,3.30
2023-05-05T03:45:27.255Z,3.53
2023-05-05T03:48:30.224Z,3.65
2023-05-05T03:51:32.947Z,3.70
2023-05-05T03:54:35.720Z,3.67
2023-05-05T03:57:38.079Z,3.65
2023-05-05T04:00:40.599Z,3.80
2023-05-05T04:03:43.659Z,4.20
2023-05-05T04:06:46.117Z,3.70
2023-05-05T04:09:49.011Z,4.38
2023-05-05T04:12:51.357Z,4.22
2023-05-05T04:15:53.812Z,4.07
2023-05-05T04:18:56.433Z,4.65
2023-05-05T04:21:59.093Z,4.17
2023-05-05T04:25:01.390Z,4.07
2023-05-05T04:28:04.295Z,4.72
2023-05-05T04:31:07.471Z,4.57
2023-05-05T04:34:13.031Z,4.07
2023-05-05T04:37:15.508Z,4.63
2023-05-05T04:40:18.203Z,4.70
2023-05-05T04:43:21.121Z,4.47
2023-05-05T04:46:24.779Z,4.10
2023-05-05T04:49:29.726Z,3.80
2023-05-05T04:52:32.151Z,4.00
2023-05-05T04:55:34.463Z,4.07
2023-05-05T04:58:36.654Z,4.40
2023-05-05T05:01:38.964Z,4.35
2023-05-05T05:04:41.294Z,4.18
2023-05-05T05:07:43.524Z,4.00
2023-05-05T05:10:45.785Z,4.65
2023-05-05T05:13:48.039Z,4.47
2023-05-05T05:16:52.430Z,4.28
2023-05-05T05:19:59.339Z,4.32
2023-05-05T05:23:04.752Z,3.97
2023-05-05T05:26:11.086Z,4.40
2023-05-05T05:29:13.918Z,3.97
2023-05-05T05:32:16.275Z,4.15
2023-05-05T05:35:18.860Z,4.05
2023-05-05T05:38:21.162Z,3.23
2023-05-05T05:41:26.180Z,3.40
2023-05-05T05:44:30.058Z,3.60
2023-05-05T05:47:32.748Z,3.50
2023-05-05T05:50:36.568Z,3.58
2023-05-05T05:53:39.595Z,3.70
2023-05-05T05:56:43.723Z,3.50
2023-05-05T05:59:46.485Z,3.05
2023-05-05T06:02:53.951Z,3.05
2023-05-05T06:06:01.487Z,3.25
2023-05-05T06:09:09.618Z,3.40
2023-05-05T06:12:19.483Z,3.25
2023-05-05T06:15:31.342Z,3.30
2023-05-05T06:18:34.951Z,3.10
2023-05-05T06:21:38.268Z,3.13
2023-05-05T06:24:40.779Z,3.20
2023-05-05T06:27:43.164Z,3.50
2023-05-05T06:30:46.348Z,3.60
2023-05-05T06:33:48.997Z,3.15
2023-05-05T06:36:52.191Z,3.03
2023-05-05T06:39:54.817Z,2.70
2023-05-05T06:42:58.508Z,2.55
2023-05-05T06:46:08.300Z,2.58
2023-05-05T06:49:10.767Z,2.63
2023-05-05T06:52:13.204Z,2.78
2023-05-05T06:55:15.899Z,2.90
2023-05-05T06:58:18.170Z,3.30
2023-05-05T07:01:20.562Z,2.83
2023-05-05T07:04:22.960Z,2.70
2023-05-05T07:07:25.397Z,2.72
2023-05-05T07:10:27.837Z,2.50
2023-05-05T07:13:30.151Z,2.90
2023-05-05T07:16:36.788Z,2.70
2023-05-05T07:19:39.113Z,2.88
2023-05-05T07:22:41.486Z,3.00
2023-05-05T07:25:44.194Z,3.00
2023-05-05T07:28:53.204Z,2.50
2023-05-05T07:31:55.647Z,2.60
2023-05-05T07:34:58.565Z,2.90
2023-05-05T07:38:01.159Z,2.97
2023-05-05T07:41:03.532Z,2.43
2023-05-05T07:44:05.757Z,3.05
2023-05-05T07:47:08.104Z,2.80
2023-05-05T07:50:13.461Z,3.10
2023-05-05T07:53:15.699Z,3.28
2023-05-05T07:56:18.945Z,2.90
2023-05-05T07:59:23.184Z,3.05
2023-05-05T08:02:25.801Z,3.08
2023-05-05T08:05:28.178Z,3.10
2023-05-05T08:08:30.574Z,3.20
2023-05-05T08:11:33.394Z,3.60
2023-05-05T08:14:36.374Z,3.17
2023-05-05T08:17:48.901Z,3.50
2023-05-05T08:20:52.039Z,3.60
2023-05-05T08:23:54.298Z,3.28
2023-05-05T08:26:56.835Z,3.37
2023-05-05T08:29:59.284Z,3.72
2023-05-05T08:33:01.707Z,3.53
2023-05-05T08:36:06.314Z,3.42
2023-05-05T08:39:08.816Z,3.60
2023-05-05T08:42:11.242Z,3.53
2023-05-05T08:45:13.711Z,3.60
2023-05-05T08:48:18.241Z,4.22
2023-05-05T08:51:24.074Z,3.90
2023-05-05T08:54:28.410Z,3.70
2023-05-05T08:57:37.871Z,3.50
2023-05-05T09:00:42.240Z,3.58
2023-05-05T09:03:46.135Z,3.67
2023-05-05T09:06:48.590Z,3.88
2023-05-05T09:09:51.021Z,3.35
2023-05-05T09:12:54.109Z,3.60
2023-05-05T09:15:56.735Z,3.80
2023-05-05T09:19:03.322Z,4.13
2023-05-05T09:22:06.673Z,3.60
2023-05-05T09:25:11.501Z,3.72
2023-05-05T09:28:14.866Z,3.40
2023-05-05T09:31:17.196Z,4.25
2023-05-05T09:34:19.602Z,4.47
2023-05-05T09:37:31.967Z,3.75
2023-05-05T09:40:44.305Z,4.03
2023-05-05T09:43:52.579Z,3.80
2023-05-05T09:46:57.889Z,3.63
2023-05-05T09:50:02.684Z,3.53
2023-05-05T09:53:11.250Z,3.67
2023-05-05T09:56:20.036Z,3.38
2023-05-05T09:59:32.200Z,3.67
2023-05-05T10:02:35.868Z,3.50
2023-05-05T10:05:49.095Z,3.65
2023-05-05T10:09:01.288Z,3.58
2023-05-05T10:12:06.903Z,3.65
2023-05-05T10:15:10.933Z,3.57
2023-05-05T10:18:18.092Z,3.30
2023-05-05T10:21:21.402Z,3.40
2023-05-05T10:24:34.634Z,3.60
2023-05-05T10:27:44.265Z,3.60
2023-05-05T10:30:49.540Z,3.20
2023-05-05T10:34:00.517Z,3.10
2023-05-05T10:37:04.828Z,2.90
2023-05-05T10:40:08.346Z,2.70
2023-05-05T10:43:11.104Z,2.50
2023-05-05T10:46:13.447Z,3.20
2023-05-05T10:49:25.056Z,3.35
2023-05-05T10:52:39.379Z,3.65
2023-05-05T10:55:50.308Z,3.20
2023-05-05T10:58:59.685Z,3.78
2023-05-05T11:02:29.667Z,4.03
2023-05-05T11:05:32.329Z,3.47
2023-05-05T11:08:35.549Z,3.20
2023-05-05T11:12:04.446Z,3.17
2023-05-05T11:15:25.976Z,2.88
2023-05-05T11:18:36.017Z,3.23
2023-05-05T11:21:58.348Z,3.35
2023-05-05T11:25:00.683Z,3.17
2023-05-05T11:28:19.299Z,3.28
2023-05-05T11:31:21.972Z,3.70
2023-05-05T11:34:26.315Z,3.30
2023-05-05T11:37:28.907Z,3.90
2023-05-05T11:40:36.415Z,3.50
2023-05-05T11:43:39.033Z,3.70
2023-05-05T11:47:01.723Z,3.90
2023-05-05T11:50:16.212Z,3.73
2023-05-05T11:53:19.941Z,4.15
2023-05-05T11:56:22.560Z,3.83
2023-05-05T11:59:27.668Z,3.90
2023-05-05T12:02:30.391Z,3.60
2023-05-05T12:05:34.819Z,3.60
2023-05-05T12:08:39.527Z,3.85
2023-05-05T12:12:08.244Z,3.70
2023-05-05T12:15:10.564Z,3.55
2023-05-05T12:18:22.114Z,3.40
2023-05-05T12:21:24.349Z,3.90
2023-05-05T12:24:26.845Z,3.95
2023-05-05T12:27:29.208Z,3.90
2023-05-05T12:30:31.656Z,2.85
2023-05-05T12:33:38.580Z,3.30
2023-05-05T12:36:41.665Z,3.27
2023-05-05T12:39:43.950Z,3.13
2023-05-05T12:42:46.477Z,3.42
2023-05-05T12:45:49.565Z,2.90
2023-05-05T12:49:05.225Z,3.45
2023-05-05T12:52:08.098Z,3.10
2023-05-05T12:55:11.459Z,3.15
2023-05-05T12:58:13.858Z,3.22
2023-05-05T13:01:16.217Z,3.13
2023-05-05T13:04:18.747Z,3.70
2023-05-05T13:07:21.700Z,3.00
2023-05-05T13:10:25.166Z,3.00
2023-05-05T13:13:27.378Z,3.20
2023-05-05T13:16:29.932Z,3.38
2023-05-05T13:19:32.179Z,3.33
2023-05-05T13:22:34.367Z,3.20
2023-05-05T13:25:36.662Z,3.10
2023-05-05T13:28:39.377Z,3.13
2023-05-05T13:31:41.897Z,3.65
2023-05-05T13:34:44.294Z,3.30
2023-05-05T13:37:47.635Z,3.63
2023-05-05T13:40:49.877Z,3.25
2023-05-05T13:43:52.232Z,3.38
2023-05-05T13:46:54.561Z,3.30
2023-05-05T13:49:57.204Z,3.50
2023-05-05T13:52:59.694Z,2.90
2023-05-05T13:56:05.142Z,3.10
2023-05-05T13:59:07.510Z,3.25
2023-05-05T14:02:09.868Z,3.30
2023-05-05T14:05:12.280Z,3.67
2023-05-05T14:08:14.462Z,3.23
2023-05-05T14:11:18.209Z,3.03
2023-05-05T14:14:20.441Z,2.90
2023-05-05T14:17:22.675Z,3.35
2023-05-05T14:20:25.139Z,3.70
2023-05-05T14:23:27.378Z,3.60
2023-05-05T14:26:29.632Z,3.45
2023-05-05T14:29:31.829Z,3.33
2023-05-05T14:32:34.059Z,3.20
2023-05-05T14:35:36.312Z,2.80
2023-05-05T14:38:38.637Z,3.30
2023-05-05T14:41:40.964Z,3.35
2023-05-05T14:44:43.223Z,2.85
2023-05-05T14:47:45.497Z,3.13
2023-05-05T14:50:48.255Z,2.90
2023-05-05T14:53:50.711Z,3.27
2023-05-05T14:56:52.923Z,3.40
2023-05-05T14:59:55.130Z,3.50
2023-05-05T15:02:57.471Z,3.58
2023-05-05T15:05:59.744Z,3.55
2023-05-05T15:09:01.978Z,3.10
2023-05-05T15:12:04.371Z,3.40
2023-05-05T15:15:08.655Z,3.30
2023-05-05T15:18:11.614Z,4.00
2023-05-05T15:21:13.847Z,3.42
2023-05-05T15:24:16.062Z,3.40
2023-05-05T15:27:18.839Z,3.67
2023-05-05T15:30:21.116Z,3.42
2023-05-05T15:33:23.282Z,3.65
2023-05-05T15:36:25.546Z,3.38
2023-05-05T15:39:27.732Z,3.77
2023-05-05T15:42:31.809Z,3.38
2023-05-05T15:45:34.210Z,3.33
2023-05-05T15:48:36.458Z,3.42
2023-05-05T15:51:38.736Z,3.58
2023-05-05T15:54:41.526Z,3.20
2023-05-05T15:57:44.269Z,3.20
2023-05-05T16:00:48.385Z,3.10
2023-05-05T16:03:56.354Z,3.03
2023-05-05T16:07:03.342Z,2.90
2023-05-05T16:10:06.060Z,3.43
2023-05-05T16:13:08.348Z,2.80
2023-05-05T16:16:10.863Z,3.08
2023-05-05T16:19:13.250Z,3.10
2023-05-05T16:22:16.248Z,2.97
2023-05-05T16:25:19.957Z,2.43
2023-05-05T16:28:22.155Z,3.22
2023-05-05T16:31:24.383Z,3.00
2023-05-05T16:34:27.792Z,3.00
2023-05-05T16:37:30.020Z,3.00
2023-05-05T16:40:32.237Z,2.90
2023-05-05T16:43:35.129Z,3.03
2023-05-05T16:46:37.747Z,3.17
2023-05-05T16:49:40.047Z,3.13
2023-05-05T16:52:42.209Z,3.20
2023-05-05T16:55:44.411Z,3.40
2023-05-05T16:58:46.715Z,2.90
2023-05-05T17:01:48.999Z,2.95
2023-05-05T17:04:51.280Z,3.00
2023-05-05T17:07:53.572Z,2.92
2023-05-05T17:10:55.782Z,2.93
2023-05-05T17:13:57.968Z,3.05
2023-05-05T17:17:00.177Z,2.97
2023-05-05T17:20:05.316Z,3.20
2023-05-05T17:23:08.889Z,3.08
2023-05-05T17:26:11.099Z,3.47
2023-05-05T17:29:14.302Z,3.70
2023-05-05T17:32:16.566Z,3.70
2023-05-05T17:35:18.990Z,3.58
2023-05-05T17:38:21.450Z,4.10
2023-05-05T17:41:25.657Z,3.40
2023-05-05T17:44:27.850Z,3.30
2023-05-05T17:47:30.091Z,3.97
2023-05-05T17:50:32.387Z,3.22
2023-05-05T17:53:34.701Z,3.53
2023-05-05T17:56:38.124Z,4.40
2023-05-05T17:59:40.346Z,5.78
2023-05-05T18:02:42.643Z,5.35
2023-05-05T18:05:44.960Z,5.18
2023-05-05T18:08:47.688Z,5.10
2023-05-05T18:11:56.425Z,4.70
2023-05-05T18:14:58.611Z,4.68
2023-05-05T18:18:00.973Z,4.30
2023-05-05T18:21:03.179Z,3.80
2023-05-05T18:24:18.779Z,4.10
2023-05-05T18:27:22.418Z,4.43
2023-05-05T18:30:24.649Z,4.30
2023-05-05T18:33:26.810Z,4.47
2023-05-05T18:36:28.986Z,4.40
2023-05-05T18:39:31.161Z,4.22
2023-05-05T18:42:33.417Z,4.27
2023-05-05T18:45:35.725Z,4.28
2023-05-05T18:48:37.994Z,4.40
2023-05-05T18:51:40.175Z,4.10
2023-05-05T18:54:42.481Z,4.10
2023-05-05T18:57:44.699Z,5.43
2023-05-05T19:00:46.948Z,4.43
2023-05-05T19:03:49.344Z,5.20
2023-05-05T19:06:52.597Z,4.47
2023-05-05T19:09:55.086Z,4.30
2023-05-05T19:12:57.311Z,4.30
2023-05-05T19:15:59.577Z,4.70
2023-05-05T19:19:01.786Z,4.85
2023-05-05T19:22:04.317Z,4.85
2023-05-05T19:25:06.750Z,5.53
2023-05-05T19:28:09.503Z,4.83
2023-05-05T19:31:11.666Z,5.30
2023-05-05T19:34:13.846Z,5.13
2023-05-05T19:37:16.112Z,5.07
2023-05-05T19:40:18.442Z,5.28
2023-05-05T19:43:20.699Z,5.53
2023-05-05T19:46:23.741Z,5.50
2023-05-05T19:49:26.316Z,5.95
2023-05-05T19:52:28.652Z,5.80
2023-05-05T19:55:32.204Z,5.82
2023-05-05T19:58:52.021Z,6.30
2023-05-05T20:01:54.328Z,6.90
2023-05-05T20:04:57.653Z,6.28
2023-05-05T20:07:59.843Z,5.78
2023-05-05T20:11:02.017Z,5.88
2023-05-05T20:14:04.278Z,5.70
2023-05-05T20:17:06.469Z,5.47
2023-05-05T20:20:08.900Z,6.47
2023-05-05T20:23:11.196Z,6.38
2023-05-05T20:26:13.563Z,5.47
2023-05-05T20:29:16.336Z,5.90
2023-05-05T20:32:20.645Z,5.85
2023-05-05T20:35:22.967Z,5.28
2023-05-05T20:38:25.270Z,5.90
2023-05-05T20:41:27.446Z,5.75
2023-05-05T20:44:29.655Z,5.43
2023-05-05T20:47:33.454Z,5.40
2023-05-05T20:50:39.143Z,5.85
2023-05-05T20:53:41.360Z,5.53
2023-05-05T20:56:43.622Z,5.85
2023-05-05T20:59:45.904Z,5.63
2023-05-05T21:02:48.259Z,5.63
2023-05-05T21:05:50.481Z,5.68
2023-05-05T21:08:52.748Z,5.40
2023-05-05T21:11:54.941Z,5.68
2023-05-05T21:14:58.888Z,5.97
2023-05-05T21:18:01.611Z,5.63
2023-05-05T21:21:03.918Z,6.03
2023-05-05T21:24:07.892Z,5.97
2023-05-05T21:27:10.509Z,5.80
2023-05-05T21:30:13.316Z,5.80
2023-05-05T21:33:15.687Z,5.72
2023-05-05T21:36:19.313Z,5.45
2023-05-05T21:39:21.636Z,5.72
2023-05-05T21:42:23.873Z,6.03
2023-05-05T21:45:26.083Z,5.60
2023-05-05T21:48:28.312Z,5.70
2023-05-05T21:51:31.290Z,6.45
2023-05-05T21:54:33.638Z,6.00
2023-05-05T21:57:35.814Z,6.32
2023-05-05T22:00:38.036Z,6.30
2023-05-05T22:03:42.334Z,6.13
2023-05-05T22:06:53.432Z,6.45
2023-05-05T22:09:55.729Z,5.75
2023-05-05T22:12:58.285Z,6.47
2023-05-05T22:16:00.671Z,6.00
2023-05-05T22:19:02.889Z,6.85
2023-05-05T22:22:05.186Z,5.32
2023-05-05T22:25:07.986Z,5.82
2023-05-05T22:28:11.217Z,6.30
2023-05-05T22:31:13.516Z,6.40
2023-05-05T22:34:16.026Z,6.25
2023-05-05T22:37:18.334Z,5.95
2023-05-05T22:40:20.652Z,6.03
2023-05-05T22:43:22.884Z,6.25
2023-05-05T22:46:25.222Z,6.50
2023-05-05T22:49:28.844Z,6.47
2023-05-05T22:52:31.081Z,6.90
2023-05-05T22:55:33.958Z,6.05
2023-05-05T22:58:36.261Z,6.55
2023-05-05T23:01:38.487Z,6.60
2023-05-05T23:04:41.018Z,6.53
2023-05-05T23:07:43.311Z,6.15
2023-05-05T23:10:45.710Z,6.95
2023-05-05T23:13:47.941Z,6.97
2023-05-05T23:16:50.192Z,6.97
2023-05-05T23:19:52.445Z,6.20
2023-05-05T23:22:55.069Z,6.00
2023-05-05T23:25:57.352Z,6.50
2023-05-05T23:28:59.519Z,6.90
2023-05-05T23:32:01.719Z,6.70
2023-05-05T23:35:04.188Z,6.47
2023-05-05T23:38:06.762Z,6.75
2023-05-05T23:41:08.995Z,6.45
2023-05-05T23:44:11.267Z,6.97
2023-05-05T23:47:13.457Z,6.50
2023-05-05T23:50:15.853Z,7.25
2023-05-05T23:53:18.108Z,6.63
2023-05-05T23:56:20.305Z,7.05
2023-05-05T23:59:22.576Z,6.63
